createdAt,value
2024-03-26T00:00:42.256Z,93438.00
2024-03-26T00:01:42.274Z,93439.00
2024-03-26T00:02:42.219Z,93454.00
2024-03-26T00:03:42.178Z,93423.00
2024-03-26T00:04:42.191Z,93423.00
2024-03-26T00:05:42.213Z,93453.00
2024-03-26T00:06:42.273Z,93450.00
2024-03-26T00:07:42.203Z,93428.00
2024-03-26T00:08:42.233Z,93444.00
2024-03-26T00:09:42.219Z,93447.00
2024-03-26T00:10:42.253Z,93451.00
2024-03-26T00:11:42.284Z,93448.00
2024-03-26T00:12:42.232Z,93418.00
2024-03-26T00:13:42.277Z,93459.00
2024-03-26T00:14:42.296Z,93449.00
2024-03-26T00:15:42.196Z,93424.00
2024-03-26T00:16:42.299Z,93425.00
2024-03-26T00:17:42.248Z,93445.00
2024-03-26T00:18:42.226Z,93473.00
2024-03-26T00:19:42.319Z,93423.00
2024-03-26T00:20:42.276Z,93457.00
2024-03-26T00:21:42.460Z,93469.00
2024-03-26T00:22:42.290Z,93463.00
2024-03-26T00:23:42.328Z,93431.00
2024-03-26T00:24:42.261Z,93466.00
2024-03-26T00:25:42.296Z,93464.00
2024-03-26T00:26:42.363Z,93449.00
2024-03-26T00:27:42.577Z,93480.00
2024-03-26T00:28:44.012Z,93475.00
2024-03-26T00:29:42.424Z,93444.00
2024-03-26T00:30:42.392Z,93438.00
2024-03-26T00:31:42.310Z,93445.00
2024-03-26T00:32:42.302Z,93422.00
2024-03-26T00:33:42.312Z,93441.00
2024-03-26T00:34:42.405Z,93479.00
2024-03-26T00:35:42.410Z,93465.00
2024-03-26T00:36:42.410Z,93468.00
2024-03-26T00:37:42.315Z,93462.00
2024-03-26T00:38:42.307Z,93464.00
2024-03-26T00:39:42.325Z,93477.00
2024-03-26T00:40:42.362Z,93446.00
2024-03-26T00:41:42.372Z,93457.00
2024-03-26T00:42:42.371Z,93434.00
2024-03-26T00:43:42.287Z,93460.00
2024-03-26T00:44:42.344Z,93444.00
2024-03-26T00:45:42.338Z,93441.00
2024-03-26T00:46:42.374Z,93466.00
2024-03-26T00:47:42.537Z,93474.00
2024-03-26T00:48:42.487Z,93447.00
2024-03-26T00:49:42.433Z,93451.00
2024-03-26T00:50:42.524Z,93455.00
2024-03-26T00:51:42.511Z,93460.00
2024-03-26T00:52:42.614Z,93449.00
2024-03-26T00:53:44.501Z,93441.00
2024-03-26T00:54:42.676Z,93449.00
2024-03-26T00:55:42.682Z,93458.00
2024-03-26T00:56:42.809Z,93464.00
2024-03-26T00:57:42.873Z,93453.00
2024-03-26T00:58:42.860Z,93421.00
2024-03-26T00:59:42.914Z,93421.00
2024-03-26T01:00:42.956Z,93433.00
2024-03-26T09:39:52.056Z,93107.00
2024-03-26T09:40:52.082Z,93088.00
2024-03-26T09:41:52.039Z,93089.00
2024-03-26T09:42:52.073Z,93082.00
2024-03-26T09:43:52.002Z,93122.00
2024-03-26T09:44:58.537Z,93131.00
2024-03-26T09:45:53.015Z,93106.00
2024-03-26T09:46:52.045Z,93095.00
2024-03-26T09:47:52.025Z,93121.00
2024-03-26T09:48:52.009Z,93106.00
2024-03-26T09:49:52.012Z,93126.00
2024-03-26T09:50:52.034Z,93074.00
2024-03-26T09:51:52.129Z,93075.00
2024-03-26T09:52:52.048Z,93126.00
2024-03-26T09:53:52.039Z,93103.00
2024-03-26T09:54:52.037Z,93086.00
2024-03-26T09:55:52.048Z,93110.00
2024-03-26T09:56:52.215Z,93111.00
2024-03-26T09:57:52.288Z,93070.00
2024-03-26T09:58:52.203Z,93062.00
2024-03-26T09:59:52.506Z,93070.00
2024-03-26T10:00:52.216Z,93115.00
2024-03-26T10:01:52.175Z,93131.00
2024-03-26T10:02:52.206Z,93123.00
2024-03-26T10:03:52.292Z,93113.00
2024-03-26T10:04:52.305Z,93040.00
2024-03-26T10:05:52.386Z,93072.00
2024-03-26T10:06:52.416Z,93101.00
2024-03-26T10:07:52.436Z,93065.00
2024-03-26T10:08:52.469Z,93050.00
2024-03-26T10:09:52.553Z,93070.00
2024-03-26T10:10:52.519Z,93061.00
2024-03-26T10:11:52.578Z,93055.00
2024-03-26T10:12:52.572Z,93062.00
2024-03-26T10:13:52.642Z,93037.00
2024-03-26T10:14:52.691Z,93074.00
2024-03-26T10:15:52.688Z,93044.00
2024-03-26T10:16:52.767Z,93039.00
2024-03-26T10:17:52.748Z,93034.00
2024-03-26T10:18:52.848Z,93042.00
2024-03-26T10:19:52.790Z,93037.00
2024-03-26T10:20:52.901Z,93041.00
2024-03-26T10:21:53.368Z,93034.00
2024-03-26T10:22:52.909Z,93034.00
2024-03-26T10:23:52.964Z,93034.00
2024-03-26T10:24:53.021Z,93039.00
2024-03-26T10:25:53.047Z,93048.00
2024-03-26T10:26:53.111Z,93040.00
2024-03-26T10:27:53.122Z,93023.00
2024-03-26T10:28:53.153Z,93012.00
2024-03-26T10:29:53.172Z,93010.00
